sensor_id;sensor_type;location;lat;lon;timestamp;P1;durP1;ratioP1;P2;durP2;ratioP2
53313;SDS011;39202;51.468;7.146;2022-07-05T00:04:41;1.30;;;1.20;;
53313;SDS011;39202;51.468;7.146;2022-07-05T00:09:42;1.00;;;0.90;;
53313;SDS011;39202;51.468;7.146;2022-07-05T00:14:46;0.90;;;0.90;;
53313;SDS011;39202;51.468;7.146;2022-07-05T00:19:48;0.90;;;0.90;;
53313;SDS011;39202;51.468;7.146;2022-07-05T00:24:49;0.90;;;0.90;;
53313;SDS011;39202;51.468;7.146;2022-07-05T00:29:52;0.82;;;0.82;;
53313;SDS011;39202;51.468;7.146;2022-07-05T00:34:54;0.90;;;0.90;;
53313;SDS011;39202;51.468;7.146;2022-07-05T00:39:56;1.10;;;1.10;;
53313;SDS011;39202;51.468;7.146;2022-07-05T00:44:59;1.10;;;1.10;;
53313;SDS011;39202;51.468;7.146;2022-07-05T00:50:01;0.88;;;0.88;;
53313;SDS011;39202;51.468;7.146;2022-07-05T00:55:02;1.00;;;1.00;;
53313;SDS011;39202;51.468;7.146;2022-07-05T01:00:07;0.80;;;0.80;;
53313;SDS011;39202;51.468;7.146;2022-07-05T01:05:09;0.80;;;0.80;;
53313;SDS011;39202;51.468;7.146;2022-07-05T01:10:11;0.80;;;0.80;;
53313;SDS011;39202;51.468;7.146;2022-07-05T01:15:14;0.90;;;0.85;;
53313;SDS011;39202;51.468;7.146;2022-07-05T01:20:16;1.00;;;1.00;;
53313;SDS011;39202;51.468;7.146;2022-07-05T01:25:24;0.88;;;0.88;;
53313;SDS011;39202;51.468;7.146;2022-07-05T01:30:26;0.85;;;0.85;;
53313;SDS011;39202;51.468;7.146;2022-07-05T01:35:28;1.00;;;1.00;;
53313;SDS011;39202;51.468;7.146;2022-07-05T01:40:31;0.82;;;0.82;;
53313;SDS011;39202;51.468;7.146;2022-07-05T01:45:33;0.90;;;0.90;;
53313;SDS011;39202;51.468;7.146;2022-07-05T01:50:43;0.85;;;0.85;;
53313;SDS011;39202;51.468;7.146;2022-07-05T01:55:49;0.90;;;0.90;;
53313;SDS011;39202;51.468;7.146;2022-07-05T02:00:52;0.90;;;0.90;;
53313;SDS011;39202;51.468;7.146;2022-07-05T02:05:55;0.90;;;0.90;;
53313;SDS011;39202;51.468;7.146;2022-07-05T02:10:58;0.70;;;0.70;;
53313;SDS011;39202;51.468;7.146;2022-07-05T02:16:00;1.00;;;1.00;;
53313;SDS011;39202;51.468;7.146;2022-07-05T02:21:02;0.90;;;0.90;;
53313;SDS011;39202;51.468;7.146;2022-07-05T02:26:05;1.00;;;1.00;;
53313;SDS011;39202;51.468;7.146;2022-07-05T02:31:07;0.80;;;0.80;;
53313;SDS011;39202;51.468;7.146;2022-07-05T02:36:10;0.93;;;0.93;;
53313;SDS011;39202;51.468;7.146;2022-07-05T02:41:14;1.00;;;1.00;;
53313;SDS011;39202;51.468;7.146;2022-07-05T02:46:16;0.77;;;0.77;;
53313;SDS011;39202;51.468;7.146;2022-07-05T02:51:17;0.70;;;0.70;;
53313;SDS011;39202;51.468;7.146;2022-07-05T02:56:20;0.85;;;0.85;;
53313;SDS011;39202;51.468;7.146;2022-07-05T03:01:22;0.85;;;0.85;;
53313;SDS011;39202;51.468;7.146;2022-07-05T03:06:24;0.88;;;0.88;;
53313;SDS011;39202;51.468;7.146;2022-07-05T03:11:27;0.82;;;0.82;;
53313;SDS011;39202;51.468;7.146;2022-07-05T03:16:28;0.80;;;0.80;;
53313;SDS011;39202;51.468;7.146;2022-07-05T03:21:30;0.90;;;0.90;;
53313;SDS011;39202;51.468;7.146;2022-07-05T03:26:33;0.80;;;0.80;;
53313;SDS011;39202;51.468;7.146;2022-07-05T03:31:35;0.70;;;0.70;;
53313;SDS011;39202;51.468;7.146;2022-07-05T03:36:36;0.70;;;0.70;;
53313;SDS011;39202;51.468;7.146;2022-07-05T03:41:39;0.80;;;0.80;;
53313;SDS011;39202;51.468;7.146;2022-07-05T03:46:41;0.80;;;0.80;;
53313;SDS011;39202;51.468;7.146;2022-07-05T03:51:43;0.80;;;0.80;;
53313;SDS011;39202;51.468;7.146;2022-07-05T03:56:46;0.80;;;0.80;;
53313;SDS011;39202;51.468;7.146;2022-07-05T04:01:47;0.70;;;0.70;;
53313;SDS011;39202;51.468;7.146;2022-07-05T04:06:49;0.90;;;0.90;;
53313;SDS011;39202;51.468;7.146;2022-07-05T04:11:52;0.80;;;0.80;;
53313;SDS011;39202;51.468;7.146;2022-07-05T04:16:54;0.90;;;0.90;;
53313;SDS011;39202;51.468;7.146;2022-07-05T04:21:55;0.70;;;0.70;;
53313;SDS011;39202;51.468;7.146;2022-07-05T04:26:58;0.70;;;0.70;;
53313;SDS011;39202;51.468;7.146;2022-07-05T04:32:00;0.80;;;0.80;;
53313;SDS011;39202;51.468;7.146;2022-07-05T04:37:02;0.88;;;0.88;;
53313;SDS011;39202;51.468;7.146;2022-07-05T04:42:06;0.70;;;0.70;;
53313;SDS011;39202;51.468;7.146;2022-07-05T04:47:07;0.60;;;0.60;;
53313;SDS011;39202;51.468;7.146;2022-07-05T04:52:09;0.70;;;0.70;;
53313;SDS011;39202;51.468;7.146;2022-07-05T04:57:12;1.15;;;0.70;;
53313;SDS011;39202;51.468;7.146;2022-07-05T05:02:14;0.70;;;0.70;;
53313;SDS011;39202;51.468;7.146;2022-07-05T05:07:16;0.80;;;0.80;;
53313;SDS011;39202;51.468;7.146;2022-07-05T05:12:19;0.70;;;0.70;;
53313;SDS011;39202;51.468;7.146;2022-07-05T05:17:20;0.60;;;0.60;;
53313;SDS011;39202;51.468;7.146;2022-07-05T05:22:22;0.70;;;0.70;;
53313;SDS011;39202;51.468;7.146;2022-07-05T05:27:25;0.60;;;0.60;;
53313;SDS011;39202;51.468;7.146;2022-07-05T05:32:27;0.80;;;0.80;;
53313;SDS011;39202;51.468;7.146;2022-07-05T05:37:28;0.68;;;0.68;;
53313;SDS011;39202;51.468;7.146;2022-07-05T05:42:31;0.70;;;0.70;;
53313;SDS011;39202;51.468;7.146;2022-07-05T05:47:33;0.70;;;0.70;;
53313;SDS011;39202;51.468;7.146;2022-07-05T05:52:43;0.73;;;0.73;;
53313;SDS011;39202;51.468;7.146;2022-07-05T05:57:46;0.82;;;0.82;;
53313;SDS011;39202;51.468;7.146;2022-07-05T06:02:48;1.10;;;1.00;;
53313;SDS011;39202;51.468;7.146;2022-07-05T06:07:52;2.33;;;1.45;;
53313;SDS011;39202;51.468;7.146;2022-07-05T06:12:57;2.58;;;1.40;;
53313;SDS011;39202;51.468;7.146;2022-07-05T06:18:08;1.40;;;1.30;;
53313;SDS011;39202;51.468;7.146;2022-07-05T06:23:10;2.58;;;1.55;;
53313;SDS011;39202;51.468;7.146;2022-07-05T06:28:14;3.92;;;1.42;;
53313;SDS011;39202;51.468;7.146;2022-07-05T06:33:16;1.33;;;1.10;;
53313;SDS011;39202;51.468;7.146;2022-07-05T06:38:18;1.35;;;1.13;;
53313;SDS011;39202;51.468;7.146;2022-07-05T06:43:21;1.90;;;1.20;;
53313;SDS011;39202;51.468;7.146;2022-07-05T06:48:23;1.42;;;0.85;;
53313;SDS011;39202;51.468;7.146;2022-07-05T06:53:24;1.30;;;1.20;;
53313;SDS011;39202;51.468;7.146;2022-07-05T06:58:27;1.20;;;1.10;;
53313;SDS011;39202;51.468;7.146;2022-07-05T07:03:29;2.35;;;1.00;;
53313;SDS011;39202;51.468;7.146;2022-07-05T07:08:31;1.15;;;1.00;;
53313;SDS011;39202;51.468;7.146;2022-07-05T07:13:52;0.90;;;0.90;;
53313;SDS011;39202;51.468;7.146;2022-07-05T07:18:54;2.65;;;0.80;;
53313;SDS011;39202;51.468;7.146;2022-07-05T07:23:56;0.77;;;0.77;;
53313;SDS011;39202;51.468;7.146;2022-07-05T07:28:59;0.93;;;0.80;;
53313;SDS011;39202;51.468;7.146;2022-07-05T07:34:00;2.95;;;0.80;;
53313;SDS011;39202;51.468;7.146;2022-07-05T07:39:02;0.80;;;0.80;;
53313;SDS011;39202;51.468;7.146;2022-07-05T07:44:05;1.38;;;1.00;;
53313;SDS011;39202;51.468;7.146;2022-07-05T07:49:07;1.80;;;0.98;;
53313;SDS011;39202;51.468;7.146;2022-07-05T07:54:09;0.80;;;0.80;;
53313;SDS011;39202;51.468;7.146;2022-07-05T07:59:12;1.02;;;1.00;;
53313;SDS011;39202;51.468;7.146;2022-07-05T08:04:14;2.78;;;1.20;;
53313;SDS011;39202;51.468;7.146;2022-07-05T08:09:16;1.45;;;1.17;;
53313;SDS011;39202;51.468;7.146;2022-07-05T08:14:19;3.78;;;1.20;;
53313;SDS011;39202;51.468;7.146;2022-07-05T08:19:21;1.60;;;1.20;;
53313;SDS011;39202;51.468;7.146;2022-07-05T08:24:40;2.65;;;1.02;;
53313;SDS011;39202;51.468;7.146;2022-07-05T08:29:43;1.58;;;1.10;;
53313;SDS011;39202;51.468;7.146;2022-07-05T08:34:45;1.13;;;1.05;;
53313;SDS011;39202;51.468;7.146;2022-07-05T08:39:46;1.42;;;1.10;;
53313;SDS011;39202;51.468;7.146;2022-07-05T08:44:50;1.45;;;1.02;;
53313;SDS011;39202;51.468;7.146;2022-07-05T08:49:53;1.90;;;0.98;;
53313;SDS011;39202;51.468;7.146;2022-07-05T08:54:57;1.23;;;1.13;;
53313;SDS011;39202;51.468;7.146;2022-07-05T09:00:00;2.72;;;1.33;;
53313;SDS011;39202;51.468;7.146;2022-07-05T09:05:02;1.27;;;1.23;;
53313;SDS011;39202;51.468;7.146;2022-07-05T09:10:06;4.65;;;1.20;;
53313;SDS011;39202;51.468;7.146;2022-07-05T09:15:11;1.10;;;1.00;;
53313;SDS011;39202;51.468;7.146;2022-07-05T09:20:13;1.00;;;0.90;;
53313;SDS011;39202;51.468;7.146;2022-07-05T09:25:17;1.15;;;1.05;;
53313;SDS011;39202;51.468;7.146;2022-07-05T09:30:26;2.45;;;1.27;;
53313;SDS011;39202;51.468;7.146;2022-07-05T09:35:30;1.20;;;1.10;;
53313;SDS011;39202;51.468;7.146;2022-07-05T09:40:32;2.67;;;1.10;;
53313;SDS011;39202;51.468;7.146;2022-07-05T09:45:54;1.25;;;1.15;;
53313;SDS011;39202;51.468;7.146;2022-07-05T09:51:03;1.30;;;1.10;;
53313;SDS011;39202;51.468;7.146;2022-07-05T09:56:07;0.98;;;0.90;;
53313;SDS011;39202;51.468;7.146;2022-07-05T10:01:25;1.42;;;1.08;;
53313;SDS011;39202;51.468;7.146;2022-07-05T10:06:28;1.13;;;0.93;;
53313;SDS011;39202;51.468;7.146;2022-07-05T10:11:32;1.00;;;1.00;;
53313;SDS011;39202;51.468;7.146;2022-07-05T10:16:36;1.20;;;1.10;;
53313;SDS011;39202;51.468;7.146;2022-07-05T10:21:38;1.38;;;0.93;;
53313;SDS011;39202;51.468;7.146;2022-07-05T10:26:41;1.35;;;1.00;;
53313;SDS011;39202;51.468;7.146;2022-07-05T10:31:45;1.30;;;1.20;;
53313;SDS011;39202;51.468;7.146;2022-07-05T10:36:47;1.13;;;1.02;;
53313;SDS011;39202;51.468;7.146;2022-07-05T10:41:48;0.93;;;0.90;;
53313;SDS011;39202;51.468;7.146;2022-07-05T10:46:52;2.05;;;1.00;;
53313;SDS011;39202;51.468;7.146;2022-07-05T10:52:21;1.00;;;1.00;;
53313;SDS011;39202;51.468;7.146;2022-07-05T10:57:24;1.35;;;0.88;;
53313;SDS011;39202;51.468;7.146;2022-07-05T11:02:28;1.05;;;0.90;;
53313;SDS011;39202;51.468;7.146;2022-07-05T11:12:58;0.90;;;0.90;;
53313;SDS011;39202;51.468;7.146;2022-07-05T11:18:14;0.75;;;0.75;;
53313;SDS011;39202;51.468;7.146;2022-07-05T11:23:16;0.80;;;0.80;;
53313;SDS011;39202;51.468;7.146;2022-07-05T11:28:28;1.08;;;1.00;;
53313;SDS011;39202;51.468;7.146;2022-07-05T11:33:44;0.80;;;0.80;;
53313;SDS011;39202;51.468;7.146;2022-07-05T11:44:08;1.42;;;0.80;;
53313;SDS011;39202;51.468;7.146;2022-07-05T11:49:19;0.70;;;0.70;;
53313;SDS011;39202;51.468;7.146;2022-07-05T11:54:22;1.25;;;0.90;;
53313;SDS011;39202;51.468;7.146;2022-07-05T11:59:25;1.65;;;1.00;;
53313;SDS011;39202;51.468;7.146;2022-07-05T12:04:28;1.02;;;0.93;;
53313;SDS011;39202;51.468;7.146;2022-07-05T12:09:32;0.90;;;0.90;;
53313;SDS011;39202;51.468;7.146;2022-07-05T12:14:49;1.08;;;0.80;;
53313;SDS011;39202;51.468;7.146;2022-07-05T12:19:53;0.75;;;0.73;;
53313;SDS011;39202;51.468;7.146;2022-07-05T12:24:55;1.00;;;0.70;;
53313;SDS011;39202;51.468;7.146;2022-07-05T12:29:58;1.20;;;1.00;;
53313;SDS011;39202;51.468;7.146;2022-07-05T12:35:03;0.80;;;0.80;;
53313;SDS011;39202;51.468;7.146;2022-07-05T12:40:06;0.80;;;0.80;;
53313;SDS011;39202;51.468;7.146;2022-07-05T12:45:10;0.80;;;0.80;;
53313;SDS011;39202;51.468;7.146;2022-07-05T12:50:14;0.98;;;0.98;;
53313;SDS011;39202;51.468;7.146;2022-07-05T12:55:16;1.67;;;1.15;;
53313;SDS011;39202;51.468;7.146;2022-07-05T13:00:35;0.90;;;0.90;;
53313;SDS011;39202;51.468;7.146;2022-07-05T13:05:38;1.20;;;0.90;;
53313;SDS011;39202;51.468;7.146;2022-07-05T13:10:45;1.00;;;1.00;;
53313;SDS011;39202;51.468;7.146;2022-07-05T13:15:47;1.10;;;0.90;;
53313;SDS011;39202;51.468;7.146;2022-07-05T13:20:51;2.85;;;1.20;;
53313;SDS011;39202;51.468;7.146;2022-07-05T13:25:53;1.55;;;0.98;;
53313;SDS011;39202;51.468;7.146;2022-07-05T13:30:56;1.00;;;0.90;;
53313;SDS011;39202;51.468;7.146;2022-07-05T13:35:59;1.17;;;1.08;;
53313;SDS011;39202;51.468;7.146;2022-07-05T13:41:01;1.50;;;1.00;;
53313;SDS011;39202;51.468;7.146;2022-07-05T13:46:02;1.23;;;1.02;;
53313;SDS011;39202;51.468;7.146;2022-07-05T13:51:06;1.00;;;1.00;;
53313;SDS011;39202;51.468;7.146;2022-07-05T13:56:08;0.88;;;0.82;;
53313;SDS011;39202;51.468;7.146;2022-07-05T14:01:10;1.00;;;1.00;;
53313;SDS011;39202;51.468;7.146;2022-07-05T14:06:13;1.25;;;1.15;;
53313;SDS011;39202;51.468;7.146;2022-07-05T14:11:14;1.27;;;0.90;;
53313;SDS011;39202;51.468;7.146;2022-07-05T14:16:16;0.95;;;0.95;;
53313;SDS011;39202;51.468;7.146;2022-07-05T14:21:19;4.30;;;1.10;;
53313;SDS011;39202;51.468;7.146;2022-07-05T14:26:21;1.92;;;1.15;;
53313;SDS011;39202;51.468;7.146;2022-07-05T14:31:23;1.15;;;1.08;;
53313;SDS011;39202;51.468;7.146;2022-07-05T14:36:26;1.38;;;0.98;;
53313;SDS011;39202;51.468;7.146;2022-07-05T14:41:28;1.48;;;1.20;;
53313;SDS011;39202;51.468;7.146;2022-07-05T14:46:29;1.02;;;1.00;;
53313;SDS011;39202;51.468;7.146;2022-07-05T14:51:33;1.40;;;0.95;;
53313;SDS011;39202;51.468;7.146;2022-07-05T14:56:34;1.20;;;1.20;;
53313;SDS011;39202;51.468;7.146;2022-07-05T15:01:36;2.75;;;1.15;;
53313;SDS011;39202;51.468;7.146;2022-07-05T15:06:39;3.47;;;1.25;;
53313;SDS011;39202;51.468;7.146;2022-07-05T15:11:42;1.48;;;1.15;;
53313;SDS011;39202;51.468;7.146;2022-07-05T15:16:43;1.42;;;1.20;;
53313;SDS011;39202;51.468;7.146;2022-07-05T15:21:46;1.05;;;1.00;;
53313;SDS011;39202;51.468;7.146;2022-07-05T15:26:48;1.17;;;1.17;;
53313;SDS011;39202;51.468;7.146;2022-07-05T15:31:50;1.00;;;1.00;;
53313;SDS011;39202;51.468;7.146;2022-07-05T15:36:53;2.28;;;1.08;;
53313;SDS011;39202;51.468;7.146;2022-07-05T15:41:55;1.42;;;1.17;;
53313;SDS011;39202;51.468;7.146;2022-07-05T15:46:59;1.38;;;1.10;;
53313;SDS011;39202;51.468;7.146;2022-07-05T15:52:04;1.20;;;1.10;;
53313;SDS011;39202;51.468;7.146;2022-07-05T15:57:06;1.90;;;1.45;;
53313;SDS011;39202;51.468;7.146;2022-07-05T16:02:08;1.40;;;1.30;;
53313;SDS011;39202;51.468;7.146;2022-07-05T16:07:11;1.10;;;1.10;;
53313;SDS011;39202;51.468;7.146;2022-07-05T16:12:13;1.52;;;1.15;;
53313;SDS011;39202;51.468;7.146;2022-07-05T16:17:15;1.25;;;1.15;;
53313;SDS011;39202;51.468;7.146;2022-07-05T16:22:18;1.27;;;1.17;;
53313;SDS011;39202;51.468;7.146;2022-07-05T16:27:20;1.52;;;1.13;;
53313;SDS011;39202;51.468;7.146;2022-07-05T16:32:21;1.20;;;1.10;;
53313;SDS011;39202;51.468;7.146;2022-07-05T16:37:25;2.03;;;0.93;;
53313;SDS011;39202;51.468;7.146;2022-07-05T16:42:26;2.15;;;1.15;;
53313;SDS011;39202;51.468;7.146;2022-07-05T16:47:28;1.38;;;1.17;;
53313;SDS011;39202;51.468;7.146;2022-07-05T16:52:31;1.85;;;0.90;;
53313;SDS011;39202;51.468;7.146;2022-07-05T16:57:33;1.13;;;1.02;;
53313;SDS011;39202;51.468;7.146;2022-07-05T17:02:35;1.00;;;1.00;;
53313;SDS011;39202;51.468;7.146;2022-07-05T17:07:38;1.05;;;0.80;;
53313;SDS011;39202;51.468;7.146;2022-07-05T17:12:40;0.90;;;0.90;;
53313;SDS011;39202;51.468;7.146;2022-07-05T17:17:42;0.90;;;0.90;;
53313;SDS011;39202;51.468;7.146;2022-07-05T17:22:45;0.90;;;0.90;;
53313;SDS011;39202;51.468;7.146;2022-07-05T17:27:48;0.90;;;0.90;;
53313;SDS011;39202;51.468;7.146;2022-07-05T17:32:50;0.70;;;0.70;;
53313;SDS011;39202;51.468;7.146;2022-07-05T17:37:53;0.85;;;0.85;;
53313;SDS011;39202;51.468;7.146;2022-07-05T17:42:55;0.80;;;0.80;;
53313;SDS011;39202;51.468;7.146;2022-07-05T17:47:56;0.85;;;0.70;;
53313;SDS011;39202;51.468;7.146;2022-07-05T17:52:59;0.90;;;0.90;;
53313;SDS011;39202;51.468;7.146;2022-07-05T17:58:01;0.70;;;0.70;;
53313;SDS011;39202;51.468;7.146;2022-07-05T18:03:06;0.75;;;0.75;;
53313;SDS011;39202;51.468;7.146;2022-07-05T18:08:09;1.10;;;0.90;;
53313;SDS011;39202;51.468;7.146;2022-07-05T18:13:13;1.08;;;0.90;;
53313;SDS011;39202;51.468;7.146;2022-07-05T18:18:15;0.90;;;0.90;;
53313;SDS011;39202;51.468;7.146;2022-07-05T18:23:18;0.80;;;0.80;;
53313;SDS011;39202;51.468;7.146;2022-07-05T18:28:20;0.70;;;0.70;;
53313;SDS011;39202;51.468;7.146;2022-07-05T18:33:22;0.88;;;0.88;;
53313;SDS011;39202;51.468;7.146;2022-07-05T18:38:25;0.70;;;0.70;;
53313;SDS011;39202;51.468;7.146;2022-07-05T18:43:28;0.68;;;0.68;;
53313;SDS011;39202;51.468;7.146;2022-07-05T18:48:30;0.70;;;0.70;;
53313;SDS011;39202;51.468;7.146;2022-07-05T18:53:33;0.77;;;0.77;;
53313;SDS011;39202;51.468;7.146;2022-07-05T18:58:34;1.20;;;0.90;;
53313;SDS011;39202;51.468;7.146;2022-07-05T19:03:36;0.80;;;0.80;;
53313;SDS011;39202;51.468;7.146;2022-07-05T19:08:39;0.80;;;0.80;;
53313;SDS011;39202;51.468;7.146;2022-07-05T19:13:59;0.75;;;0.75;;
53313;SDS011;39202;51.468;7.146;2022-07-05T19:19:00;0.70;;;0.70;;
53313;SDS011;39202;51.468;7.146;2022-07-05T19:24:04;0.60;;;0.60;;
53313;SDS011;39202;51.468;7.146;2022-07-05T19:29:06;1.00;;;1.00;;
53313;SDS011;39202;51.468;7.146;2022-07-05T19:34:08;0.70;;;0.70;;
53313;SDS011;39202;51.468;7.146;2022-07-05T19:39:11;0.63;;;0.63;;
53313;SDS011;39202;51.468;7.146;2022-07-05T19:44:13;0.63;;;0.63;;
53313;SDS011;39202;51.468;7.146;2022-07-05T19:49:15;0.70;;;0.70;;
53313;SDS011;39202;51.468;7.146;2022-07-05T19:54:18;0.77;;;0.77;;
53313;SDS011;39202;51.468;7.146;2022-07-05T19:59:20;0.70;;;0.70;;
53313;SDS011;39202;51.468;7.146;2022-07-05T20:04:21;0.57;;;0.57;;
53313;SDS011;39202;51.468;7.146;2022-07-05T20:09:25;0.80;;;0.80;;
53313;SDS011;39202;51.468;7.146;2022-07-05T20:14:26;0.60;;;0.60;;
53313;SDS011;39202;51.468;7.146;2022-07-05T20:19:29;0.70;;;0.70;;
53313;SDS011;39202;51.468;7.146;2022-07-05T20:24:32;0.68;;;0.68;;
53313;SDS011;39202;51.468;7.146;2022-07-05T20:29:34;0.70;;;0.70;;
53313;SDS011;39202;51.468;7.146;2022-07-05T20:34:36;0.73;;;0.73;;
53313;SDS011;39202;51.468;7.146;2022-07-05T20:39:40;0.60;;;0.60;;
53313;SDS011;39202;51.468;7.146;2022-07-05T20:44:42;0.70;;;0.70;;
53313;SDS011;39202;51.468;7.146;2022-07-05T20:49:44;0.70;;;0.70;;
53313;SDS011;39202;51.468;7.146;2022-07-05T20:54:47;0.68;;;0.68;;
53313;SDS011;39202;51.468;7.146;2022-07-05T20:59:48;0.68;;;0.68;;
53313;SDS011;39202;51.468;7.146;2022-07-05T21:04:50;0.70;;;0.70;;
53313;SDS011;39202;51.468;7.146;2022-07-05T21:09:54;0.63;;;0.63;;
53313;SDS011;39202;51.468;7.146;2022-07-05T21:14:55;0.60;;;0.60;;
53313;SDS011;39202;51.468;7.146;2022-07-05T21:19:57;0.65;;;0.65;;
53313;SDS011;39202;51.468;7.146;2022-07-05T21:25:00;0.70;;;0.70;;
53313;SDS011;39202;51.468;7.146;2022-07-05T21:30:02;0.73;;;0.70;;
53313;SDS011;39202;51.468;7.146;2022-07-05T21:35:05;0.70;;;0.70;;
53313;SDS011;39202;51.468;7.146;2022-07-05T21:40:09;0.60;;;0.60;;
53313;SDS011;39202;51.468;7.146;2022-07-05T21:45:11;0.70;;;0.70;;
53313;SDS011;39202;51.468;7.146;2022-07-05T21:50:13;0.70;;;0.70;;
53313;SDS011;39202;51.468;7.146;2022-07-05T21:55:16;0.60;;;0.60;;
53313;SDS011;39202;51.468;7.146;2022-07-05T22:00:19;0.70;;;0.70;;
53313;SDS011;39202;51.468;7.146;2022-07-05T22:05:39;0.70;;;0.70;;
53313;SDS011;39202;51.468;7.146;2022-07-05T22:10:42;0.55;;;0.55;;
53313;SDS011;39202;51.468;7.146;2022-07-05T22:15:44;0.70;;;0.70;;
53313;SDS011;39202;51.468;7.146;2022-07-05T22:20:46;0.73;;;0.73;;
53313;SDS011;39202;51.468;7.146;2022-07-05T22:25:49;0.80;;;0.80;;
53313;SDS011;39202;51.468;7.146;2022-07-05T22:30:51;1.52;;;0.70;;
53313;SDS011;39202;51.468;7.146;2022-07-05T22:35:52;0.60;;;0.60;;
53313;SDS011;39202;51.468;7.146;2022-07-05T22:40:55;0.63;;;0.63;;
53313;SDS011;39202;51.468;7.146;2022-07-05T22:45:57;0.70;;;0.70;;
53313;SDS011;39202;51.468;7.146;2022-07-05T22:50:59;0.70;;;0.70;;
53313;SDS011;39202;51.468;7.146;2022-07-05T22:56:02;1.38;;;0.73;;
53313;SDS011;39202;51.468;7.146;2022-07-05T23:01:04;0.70;;;0.70;;
53313;SDS011;39202;51.468;7.146;2022-07-05T23:06:06;0.70;;;0.70;;
53313;SDS011;39202;51.468;7.146;2022-07-05T23:11:09;0.60;;;0.60;;
53313;SDS011;39202;51.468;7.146;2022-07-05T23:16:12;0.75;;;0.75;;
53313;SDS011;39202;51.468;7.146;2022-07-05T23:21:14;0.77;;;0.77;;
53313;SDS011;39202;51.468;7.146;2022-07-05T23:26:17;0.68;;;0.68;;
53313;SDS011;39202;51.468;7.146;2022-07-05T23:31:19;0.68;;;0.52;;
53313;SDS011;39202;51.468;7.146;2022-07-05T23:36:21;0.80;;;0.80;;
53313;SDS011;39202;51.468;7.146;2022-07-05T23:41:24;0.65;;;0.65;;
53313;SDS011;39202;51.468;7.146;2022-07-05T23:46:25;0.70;;;0.70;;
53313;SDS011;39202;51.468;7.146;2022-07-05T23:51:27;0.68;;;0.68;;
53313;SDS011;39202;51.468;7.146;2022-07-05T23:56:30;0.93;;;0.93;;
